createdAt,value
2018-08-23T00:00:46.678Z,4.40
2018-08-23T00:03:27.304Z,5.53
2018-08-23T00:06:06.231Z,4.17
2018-08-23T00:08:47.754Z,4.60
2018-08-23T00:11:29.071Z,4.87
2018-08-23T00:14:05.431Z,5.03
2018-08-23T00:16:42.801Z,4.53
2018-08-23T00:19:19.256Z,5.13
2018-08-23T00:21:55.769Z,4.90
2018-08-23T00:24:32.266Z,5.13
2018-08-23T00:27:10.542Z,4.90
2018-08-23T00:29:46.597Z,5.10
2018-08-23T00:32:23.036Z,4.17
2018-08-23T00:34:59.848Z,4.80
2018-08-23T00:37:38.295Z,4.80
2018-08-23T00:40:14.909Z,4.30
2018-08-23T00:42:56.286Z,4.40
2018-08-23T00:45:32.998Z,4.43
2018-08-23T00:48:09.373Z,4.70
2018-08-23T00:51:04.967Z,5.13
2018-08-23T00:53:46.099Z,4.50
2018-08-23T00:56:23.350Z,4.67
2018-08-23T00:59:02.686Z,5.00
2018-08-23T01:01:38.968Z,4.43
2018-08-23T01:04:19.433Z,4.50
2018-08-23T01:06:55.792Z,4.47
2018-08-23T01:09:32.325Z,5.60
2018-08-23T01:12:08.644Z,5.43
2018-08-23T01:14:44.975Z,5.00
2018-08-23T01:17:21.591Z,5.17
2018-08-23T01:20:00.451Z,6.40
2018-08-23T01:22:37.473Z,5.10
2018-08-23T01:25:13.924Z,5.70
2018-08-23T01:27:50.443Z,4.27
2018-08-23T01:30:26.911Z,4.97
2018-08-23T01:33:03.313Z,5.17
2018-08-23T01:35:42.502Z,4.80
2018-08-23T01:38:19.205Z,5.20
2018-08-23T01:40:59.752Z,5.70
2018-08-23T01:43:36.111Z,5.47
2018-08-23T01:46:12.451Z,5.13
2018-08-23T01:48:53.482Z,5.17
2018-08-23T01:51:29.817Z,5.90
2018-08-23T01:54:06.387Z,5.43
2018-08-23T01:56:42.698Z,5.90
2018-08-23T01:59:19.272Z,5.80
2018-08-23T02:01:55.782Z,4.77
2018-08-23T02:04:32.046Z,6.50
2018-08-23T02:07:08.557Z,5.27
2018-08-23T02:09:45.015Z,4.83
2018-08-23T02:12:21.724Z,5.40
2018-08-23T02:15:03.838Z,5.20
2018-08-23T02:17:55.798Z,5.40
2018-08-23T02:20:32.262Z,5.00
2018-08-23T02:23:08.776Z,5.50
2018-08-23T02:25:45.091Z,4.40
2018-08-23T02:28:21.494Z,6.17
2018-08-23T02:30:58.237Z,4.80
2018-08-23T02:33:34.703Z,5.80
2018-08-23T02:36:17.922Z,5.53
2018-08-23T02:39:10.628Z,5.50
2018-08-23T02:41:47.039Z,6.20
2018-08-23T02:44:23.531Z,5.30
2018-08-23T02:47:02.381Z,4.80
2018-08-23T02:49:38.790Z,5.20
2018-08-23T02:52:15.175Z,5.57
2018-08-23T02:54:51.683Z,6.50
2018-08-23T02:57:27.938Z,5.20
2018-08-23T03:00:04.346Z,6.17
2018-08-23T03:02:44.846Z,5.30
2018-08-23T03:05:22.495Z,5.57
2018-08-23T03:07:58.847Z,6.17
2018-08-23T03:10:35.889Z,4.77
2018-08-23T03:13:12.209Z,6.27
2018-08-23T03:15:48.708Z,5.13
2018-08-23T03:18:25.197Z,5.00
2018-08-23T03:21:07.363Z,5.30
2018-08-23T03:23:46.565Z,6.10
2018-08-23T03:26:23.032Z,5.10
2018-08-23T03:28:59.527Z,5.90
2018-08-23T03:31:35.923Z,5.30
2018-08-23T03:34:12.302Z,5.80
2018-08-23T03:36:48.799Z,5.53
2018-08-23T03:39:25.210Z,5.30
2018-08-23T03:42:01.608Z,5.43
2018-08-23T03:44:38.039Z,5.73
2018-08-23T03:47:14.473Z,6.03
2018-08-23T03:49:51.178Z,5.40
2018-08-23T03:52:33.007Z,5.87
2018-08-23T03:55:10.888Z,4.73
2018-08-23T03:57:52.880Z,5.10
2018-08-23T04:00:34.475Z,5.90
2018-08-23T04:03:18.274Z,4.63
2018-08-23T04:05:55.835Z,4.90
2018-08-23T04:08:32.151Z,5.63
2018-08-23T04:11:08.591Z,5.70
2018-08-23T04:13:46.054Z,5.97
2018-08-23T04:16:31.263Z,5.27
2018-08-23T04:19:07.691Z,5.23
2018-08-23T04:21:44.191Z,5.93
2018-08-23T04:24:20.639Z,5.17
2018-08-23T04:26:57.010Z,5.10
2018-08-23T04:29:38.558Z,4.50
2018-08-23T04:32:17.467Z,5.10
2018-08-23T04:34:53.737Z,5.63
2018-08-23T04:37:31.066Z,5.70
2018-08-23T04:40:08.551Z,4.93
2018-08-23T04:42:45.058Z,6.50
2018-08-23T04:45:25.641Z,5.23
2018-08-23T04:48:04.734Z,5.77
2018-08-23T04:50:40.979Z,5.73
2018-08-23T04:53:17.465Z,5.70
2018-08-23T04:55:53.834Z,6.67
2018-08-23T04:58:30.183Z,5.80
2018-08-23T05:01:06.743Z,7.13
2018-08-23T05:03:43.048Z,8.53
2018-08-23T05:06:19.483Z,6.23
2018-08-23T05:08:55.868Z,6.53
2018-08-23T05:11:32.976Z,7.57
2018-08-23T05:14:09.567Z,6.20
2018-08-23T05:16:45.882Z,5.93
2018-08-23T05:19:22.380Z,6.20
2018-08-23T05:21:58.991Z,6.20
2018-08-23T05:24:35.358Z,6.83
2018-08-23T05:27:11.855Z,6.00
2018-08-23T05:29:48.361Z,6.00
2018-08-23T15:05:10.798Z,2.53
2018-08-23T15:07:47.102Z,2.17
2018-08-23T15:10:23.410Z,2.10
2018-08-23T15:12:59.815Z,2.63
2018-08-23T15:15:41.554Z,2.37
2018-08-23T15:18:19.878Z,2.57
2018-08-23T15:20:56.453Z,2.40
2018-08-23T15:23:32.808Z,2.10
2018-08-23T15:26:09.316Z,2.43
2018-08-23T15:28:45.719Z,2.80
2018-08-23T15:31:22.200Z,2.90
2018-08-23T15:33:58.724Z,2.57
2018-08-23T15:36:36.461Z,2.27
2018-08-23T15:39:14.582Z,2.50
2018-08-23T15:41:50.831Z,1.70
2018-08-23T15:44:27.349Z,2.60
2018-08-23T15:47:03.722Z,2.57
2018-08-23T15:49:40.286Z,2.40
2018-08-23T15:52:16.946Z,2.53
2018-08-23T15:54:53.321Z,2.33
2018-08-23T15:57:29.878Z,2.00
2018-08-23T16:00:06.959Z,2.70
2018-08-23T16:02:43.322Z,2.20
2018-08-23T16:05:20.846Z,2.23
2018-08-23T16:07:57.227Z,2.50
2018-08-23T16:10:33.729Z,2.27
2018-08-23T16:13:10.189Z,2.17
2018-08-23T16:15:46.642Z,2.60
2018-08-23T16:18:28.211Z,2.77
2018-08-23T16:21:04.735Z,2.80
2018-08-23T16:23:41.176Z,2.30
2018-08-23T16:26:17.519Z,2.90
2018-08-23T16:28:53.833Z,2.90
2018-08-23T16:31:30.582Z,2.23
2018-08-23T16:34:07.001Z,2.00
2018-08-23T16:36:43.428Z,2.13
2018-08-23T16:39:19.804Z,2.43
2018-08-23T16:41:56.330Z,2.57
2018-08-23T16:44:32.802Z,2.67
2018-08-23T16:47:09.800Z,2.60
2018-08-23T16:49:48.855Z,2.70
2018-08-23T16:52:25.401Z,2.70
2018-08-23T16:55:01.819Z,2.90
2018-08-23T16:57:38.276Z,2.40
2018-08-23T17:00:14.544Z,2.33
2018-08-23T17:02:51.014Z,2.43
2018-08-23T17:05:27.494Z,2.37
2018-08-23T17:08:03.855Z,2.70
2018-08-23T17:10:40.389Z,2.33
2018-08-23T17:13:21.891Z,2.50
2018-08-23T17:16:03.474Z,2.60
2018-08-23T17:18:40.195Z,2.20
2018-08-23T17:21:16.584Z,2.67
2018-08-23T17:23:53.049Z,2.00
2018-08-23T17:26:29.487Z,1.90
2018-08-23T17:29:05.948Z,2.00
2018-08-23T17:31:42.431Z,1.87
2018-08-23T17:34:18.873Z,2.93
2018-08-23T17:36:55.308Z,2.40
2018-08-23T17:39:31.721Z,2.33
2018-08-23T17:42:08.333Z,2.80
2018-08-23T17:44:45.130Z,2.37
2018-08-23T17:47:22.163Z,2.40
2018-08-23T17:49:59.245Z,2.33
2018-08-23T17:52:36.598Z,2.60
2018-08-23T17:55:13.363Z,2.50
2018-08-23T17:57:49.663Z,3.00
2018-08-23T18:00:26.143Z,2.63
2018-08-23T18:03:02.565Z,2.93
2018-08-23T18:05:39.049Z,2.63
2018-08-23T18:08:15.696Z,2.43
2018-08-23T18:10:52.178Z,2.10
2018-08-23T18:13:28.667Z,2.57
2018-08-23T18:16:10.258Z,3.10
2018-08-23T18:18:47.342Z,2.07
2018-08-23T18:21:23.826Z,2.53
2018-08-23T18:24:00.385Z,2.10
2018-08-23T18:26:36.959Z,2.63
2018-08-23T18:29:13.480Z,2.37
2018-08-23T18:31:50.449Z,2.33
2018-08-23T18:34:26.815Z,2.53
2018-08-23T18:37:03.402Z,2.40
2018-08-23T18:39:39.957Z,2.70
2018-08-23T18:42:16.444Z,2.80
2018-08-23T18:44:53.107Z,2.90
2018-08-23T18:47:29.554Z,2.80
2018-08-23T18:50:07.479Z,3.10
2018-08-23T18:52:44.039Z,2.57
2018-08-23T18:55:22.393Z,2.80
2018-08-23T18:57:58.791Z,2.50
2018-08-23T19:00:35.209Z,3.40
2018-08-23T19:03:11.666Z,2.40
2018-08-23T19:05:48.247Z,2.60
2018-08-23T19:08:24.562Z,2.47
2018-08-23T19:11:00.935Z,2.73
2018-08-23T19:13:37.518Z,2.90
2018-08-23T19:16:19.115Z,2.20
2018-08-23T19:18:55.691Z,2.50
2018-08-23T19:21:31.934Z,3.20
2018-08-23T19:24:08.480Z,2.93
2018-08-23T19:26:44.854Z,1.83
2018-08-23T19:29:21.405Z,2.10
2018-08-23T19:31:57.788Z,2.00
2018-08-23T19:34:34.394Z,2.50
2018-08-23T19:37:10.881Z,2.53
2018-08-23T19:39:47.191Z,2.40
2018-08-23T19:42:23.631Z,1.87
2018-08-23T19:45:01.148Z,2.47
2018-08-23T19:47:45.066Z,2.23
2018-08-23T19:50:21.867Z,2.40
2018-08-23T19:52:58.481Z,2.07
2018-08-23T19:55:34.976Z,2.30
2018-08-23T19:58:11.435Z,2.23
2018-08-23T20:00:47.852Z,2.90
2018-08-23T20:03:24.268Z,2.63
2018-08-23T20:06:00.610Z,3.00
2018-08-23T20:08:37.127Z,2.60
2018-08-23T20:11:13.603Z,2.83
2018-08-23T20:13:50.077Z,2.73
2018-08-23T20:16:26.550Z,2.20
2018-08-23T20:19:03.009Z,2.90
2018-08-23T20:21:39.286Z,2.60
2018-08-23T20:24:15.707Z,2.30
2018-08-23T20:26:52.139Z,2.90
2018-08-23T20:29:28.597Z,2.43
2018-08-23T20:32:05.036Z,2.70
2018-08-23T20:34:41.894Z,3.17
2018-08-23T20:37:18.200Z,2.73
2018-08-23T20:39:54.519Z,3.10
2018-08-23T20:42:30.906Z,2.97
2018-08-23T20:45:07.705Z,2.67
2018-08-23T20:47:44.083Z,3.07
2018-08-23T20:50:20.379Z,2.90
2018-08-23T20:52:59.164Z,2.70
2018-08-23T20:55:42.822Z,2.60
2018-08-23T20:58:19.314Z,2.80
2018-08-23T21:00:55.552Z,3.20
2018-08-23T21:03:32.002Z,2.93
2018-08-23T21:06:08.503Z,2.80
2018-08-23T21:08:44.945Z,2.67
2018-08-23T21:11:21.479Z,2.53
2018-08-23T21:13:58.070Z,2.80
2018-08-23T21:16:34.536Z,3.27
2018-08-23T21:19:10.849Z,3.10
2018-08-23T21:21:47.290Z,2.93
2018-08-23T21:24:23.822Z,2.73
2018-08-23T21:27:00.051Z,3.10
2018-08-23T21:29:36.555Z,3.30
2018-08-23T21:32:12.849Z,2.90
2018-08-23T21:34:49.229Z,3.30
2018-08-23T21:37:25.487Z,3.27
2018-08-23T21:40:01.996Z,3.27
2018-08-23T21:42:38.543Z,3.10
2018-08-23T21:45:14.939Z,3.47
2018-08-23T21:47:51.352Z,3.20
2018-08-23T21:50:27.718Z,2.80
2018-08-23T21:53:04.222Z,3.10
2018-08-23T21:55:41.624Z,3.03
2018-08-23T21:58:17.929Z,2.50
2018-08-23T22:00:54.454Z,2.33
2018-08-23T22:03:30.876Z,2.90
2018-08-23T22:06:07.229Z,2.60
2018-08-23T22:08:43.618Z,2.50
2018-08-23T22:11:20.084Z,2.63
2018-08-23T22:13:56.520Z,2.83
2018-08-23T22:16:32.998Z,2.47
2018-08-23T22:19:09.481Z,3.07
2018-08-23T22:21:46.143Z,2.23
2018-08-23T22:24:22.479Z,2.53
2018-08-23T22:26:58.859Z,3.10
2018-08-23T22:29:35.775Z,2.93
2018-08-23T22:32:12.260Z,3.87
2018-08-23T22:34:48.592Z,2.53
2018-08-23T22:37:25.078Z,2.80
2018-08-23T22:40:01.541Z,3.00
2018-08-23T22:42:38.060Z,2.83
2018-08-23T22:45:14.309Z,3.17
2018-08-23T22:47:50.739Z,2.90
2018-08-23T22:50:27.238Z,2.87
2018-08-23T22:53:03.649Z,3.50
2018-08-23T22:55:40.143Z,3.10
2018-08-23T22:58:16.480Z,2.67
2018-08-23T23:00:54.053Z,2.60
2018-08-23T23:03:35.521Z,2.90
2018-08-23T23:06:11.973Z,2.93
2018-08-23T23:08:48.385Z,3.07
2018-08-23T23:11:24.888Z,2.53
2018-08-23T23:14:01.328Z,2.80
2018-08-23T23:16:37.852Z,2.40
2018-08-23T23:19:14.276Z,3.30
2018-08-23T23:21:50.718Z,2.90
2018-08-23T23:24:32.336Z,2.60
2018-08-23T23:27:09.046Z,3.17
2018-08-23T23:29:45.366Z,3.00
2018-08-23T23:32:21.845Z,2.77
2018-08-23T23:34:58.364Z,2.67
2018-08-23T23:37:34.878Z,2.60
2018-08-23T23:40:11.174Z,2.60
2018-08-23T23:42:47.678Z,2.70
2018-08-23T23:45:24.150Z,3.20
2018-08-23T23:48:00.576Z,2.90
2018-08-23T23:50:37.019Z,3.63
2018-08-23T23:53:13.523Z,2.73
2018-08-23T23:55:57.229Z,2.73
2018-08-23T23:58:33.433Z,3.27
